createdAt,value
2017-07-16T00:00:17.936Z,17.31
2017-07-16T00:00:58.830Z,17.23
2017-07-16T00:01:39.723Z,17.27
2017-07-16T00:02:20.618Z,17.41
2017-07-16T00:03:01.509Z,17.38
2017-07-16T00:03:42.397Z,17.34
2017-07-16T00:04:23.281Z,17.34
2017-07-16T00:05:04.174Z,17.41
2017-07-16T00:05:45.075Z,17.42
2017-07-16T00:06:25.965Z,17.34
2017-07-16T00:07:06.860Z,17.34
2017-07-16T00:07:47.747Z,17.45
2017-07-16T00:08:28.635Z,17.36
2017-07-16T00:09:09.532Z,17.38
2017-07-16T00:09:50.425Z,17.39
2017-07-16T00:10:31.317Z,17.39
2017-07-16T00:11:12.209Z,17.36
2017-07-16T00:11:53.098Z,17.39
2017-07-16T00:12:33.984Z,17.44
2017-07-16T00:13:14.877Z,17.51
2017-07-16T00:13:55.770Z,17.48
2017-07-16T00:14:36.660Z,17.49
2017-07-16T00:15:17.550Z,17.56
2017-07-16T00:15:58.444Z,17.52
2017-07-16T00:16:39.335Z,17.46
2017-07-16T00:17:20.219Z,17.41
2017-07-16T00:18:01.113Z,17.52
2017-07-16T00:18:42.000Z,17.46
2017-07-16T00:19:22.890Z,17.45
2017-07-16T00:20:03.789Z,17.42
2017-07-16T00:20:44.714Z,17.39
2017-07-16T00:21:25.617Z,17.42
2017-07-16T00:22:06.510Z,17.39
2017-07-16T00:22:47.411Z,17.44
2017-07-16T00:23:28.290Z,17.36
2017-07-16T00:24:09.187Z,17.46
2017-07-16T00:24:50.076Z,17.36
2017-07-16T00:25:30.971Z,17.46
2017-07-16T00:26:11.864Z,17.52
2017-07-16T00:26:52.754Z,17.46
2017-07-16T00:27:33.647Z,17.45
2017-07-16T00:28:14.548Z,17.48
2017-07-16T00:28:55.439Z,17.46
2017-07-16T00:29:36.327Z,17.45
2017-07-16T00:30:17.243Z,17.52
2017-07-16T00:30:58.106Z,17.45
2017-07-16T00:31:38.991Z,17.39
2017-07-16T00:32:19.882Z,17.39
2017-07-16T00:33:00.786Z,17.39
2017-07-16T00:33:41.686Z,17.36
2017-07-16T00:34:22.571Z,17.39
2017-07-16T00:35:03.453Z,17.38
2017-07-16T00:35:44.345Z,17.39
2017-07-16T00:36:25.221Z,17.38
2017-07-16T00:37:06.104Z,17.31
2017-07-16T00:37:46.992Z,17.34
2017-07-16T00:38:27.877Z,17.3
2017-07-16T00:39:08.776Z,17.39
2017-07-16T00:39:49.664Z,17.34
2017-07-16T00:40:30.552Z,17.33
2017-07-16T00:41:11.452Z,17.34
2017-07-16T00:41:52.349Z,17.23
2017-07-16T00:42:33.240Z,17.23
2017-07-16T00:43:14.128Z,17.26
2017-07-16T00:43:55.016Z,17.26
2017-07-16T00:44:35.893Z,17.26
2017-07-16T00:45:16.780Z,17.22
2017-07-16T00:45:57.664Z,17.19
2017-07-16T00:46:38.552Z,17.22
2017-07-16T00:47:19.438Z,17.22
2017-07-16T00:48:00.326Z,17.23
2017-07-16T00:48:41.218Z,17.26
2017-07-16T00:49:22.097Z,17.23
2017-07-16T00:50:02.984Z,17.24
2017-07-16T00:50:43.867Z,17.31
2017-07-16T00:51:24.753Z,17.16
2017-07-16T00:52:05.633Z,17.16
2017-07-16T00:52:46.525Z,17.27
2017-07-16T00:53:27.417Z,17.16
2017-07-16T00:54:08.318Z,17.15
2017-07-16T00:54:49.207Z,17.14
2017-07-16T00:55:30.088Z,17.22
2017-07-16T00:56:10.975Z,17.19
2017-07-16T00:56:51.859Z,17.16
2017-07-16T00:57:32.764Z,17.16
2017-07-16T00:58:13.652Z,17.14
2017-07-16T00:58:54.553Z,17.16
2017-07-16T00:59:35.437Z,17.06
2017-07-16T01:00:16.316Z,17.19
2017-07-16T01:00:57.203Z,17.16
2017-07-16T01:01:38.091Z,17.14
2017-07-16T01:02:18.976Z,17.15
2017-07-16T01:02:59.865Z,17.14
2017-07-16T01:03:40.763Z,17.05
2017-07-16T01:04:21.656Z,17.06
2017-07-16T01:05:02.548Z,17.04
2017-07-16T01:05:43.432Z,17.11
2017-07-16T01:06:24.325Z,17.09
2017-07-16T01:07:05.226Z,17.11
2017-07-16T01:07:46.113Z,17.14
2017-07-16T01:08:26.990Z,17.11
2017-07-16T01:09:07.888Z,17.19
2017-07-16T01:09:48.772Z,17.09
2017-07-16T01:10:29.669Z,17.06
2017-07-16T01:11:10.557Z,17.08
2017-07-16T01:11:51.461Z,17.06
2017-07-16T01:12:32.332Z,17.11
2017-07-16T01:13:13.217Z,17.06
2017-07-16T01:13:54.112Z,17.05
2017-07-16T01:14:34.998Z,17.05
2017-07-16T01:15:15.880Z,17.11
2017-07-16T01:15:56.770Z,17.06
2017-07-16T01:16:37.650Z,17.05
2017-07-16T01:17:18.527Z,17.08
2017-07-16T01:17:59.411Z,17.04
2017-07-16T01:18:40.298Z,17.08
2017-07-16T01:19:21.192Z,17.14
2017-07-16T01:20:02.080Z,17.06
2017-07-16T01:20:42.958Z,17.04
2017-07-16T01:21:23.858Z,16.99
2017-07-16T01:22:04.744Z,16.93
2017-07-16T01:22:45.629Z,16.97
2017-07-16T01:23:26.523Z,17.04
2017-07-16T01:24:07.419Z,16.84
2017-07-16T01:24:48.294Z,16.86
2017-07-16T01:25:29.173Z,16.91
2017-07-16T01:26:10.068Z,16.91
2017-07-16T01:26:50.955Z,16.94
2017-07-16T01:27:31.843Z,16.86
2017-07-16T01:28:12.738Z,16.84
2017-07-16T01:28:53.629Z,16.84
2017-07-16T01:29:34.519Z,16.84
2017-07-16T01:30:15.402Z,16.84
2017-07-16T01:30:56.293Z,16.91
2017-07-16T01:31:37.195Z,16.89
2017-07-16T01:32:18.083Z,16.9
2017-07-16T01:32:58.974Z,16.91
2017-07-16T01:33:39.867Z,16.89
2017-07-16T01:34:20.756Z,16.84
2017-07-16T01:35:01.649Z,16.86
2017-07-16T01:35:42.528Z,16.87
2017-07-16T01:36:23.419Z,16.83
2017-07-16T01:37:04.305Z,16.86
2017-07-16T01:37:45.191Z,16.78
2017-07-16T01:38:26.088Z,16.86
2017-07-16T01:39:06.977Z,16.83
2017-07-16T01:39:47.862Z,16.89
2017-07-16T01:40:28.769Z,16.89
2017-07-16T01:41:09.663Z,16.81
2017-07-16T01:41:50.560Z,16.78
2017-07-16T01:42:31.440Z,16.86
2017-07-16T01:43:12.330Z,16.79
2017-07-16T01:43:53.220Z,16.87
2017-07-16T01:44:34.119Z,16.86
2017-07-16T01:45:15.017Z,16.81
2017-07-16T01:45:55.911Z,16.74
2017-07-16T01:46:36.788Z,16.69
2017-07-16T01:47:17.681Z,16.64
2017-07-16T01:47:58.609Z,16.81
2017-07-16T01:48:39.511Z,16.78
2017-07-16T01:49:20.395Z,16.71
2017-07-16T01:50:01.308Z,16.74
2017-07-16T01:50:42.198Z,16.69
2017-07-16T01:51:23.077Z,16.71
2017-07-16T01:53:01.509Z,16.74
2017-07-16T01:53:42.398Z,16.66
2017-07-16T01:54:23.289Z,16.69
2017-07-16T01:55:04.176Z,16.66
2017-07-16T01:55:45.063Z,16.75
2017-07-16T01:56:25.950Z,16.71
2017-07-16T01:57:06.835Z,16.66
2017-07-16T01:57:47.717Z,16.65
2017-07-16T01:58:28.603Z,16.65
2017-07-16T01:59:09.490Z,16.68
2017-07-16T01:59:50.390Z,16.69
2017-07-16T02:00:31.276Z,16.69
2017-07-16T02:01:12.165Z,16.74
2017-07-16T02:01:53.057Z,16.65
2017-07-16T02:02:33.942Z,16.66
2017-07-16T02:03:14.840Z,16.64
2017-07-16T02:03:55.739Z,16.65
2017-07-16T02:04:36.625Z,16.64
2017-07-16T02:05:17.518Z,16.61
2017-07-16T02:05:58.404Z,16.66
2017-07-16T02:06:39.291Z,16.61
2017-07-16T02:07:20.186Z,16.61
2017-07-16T02:08:01.074Z,16.6
2017-07-16T02:08:41.960Z,16.61
2017-07-16T02:09:22.843Z,16.64
2017-07-16T02:10:03.731Z,16.58
2017-07-16T02:10:44.621Z,16.56
2017-07-16T02:11:25.528Z,16.64
2017-07-16T02:12:06.402Z,16.6
2017-07-16T02:12:47.286Z,16.6
2017-07-16T02:13:28.171Z,16.54
2017-07-16T02:14:09.078Z,16.53
2017-07-16T02:14:49.969Z,16.66
2017-07-16T02:15:30.858Z,16.57
2017-07-16T02:16:11.749Z,16.68
2017-07-16T02:16:52.640Z,16.58
2017-07-16T02:17:33.539Z,16.53
2017-07-16T02:18:14.431Z,16.54
2017-07-16T02:18:55.318Z,16.58
2017-07-16T02:19:36.205Z,16.64
2017-07-16T02:20:17.091Z,16.51
2017-07-16T02:20:57.981Z,16.57
2017-07-16T02:21:38.869Z,16.56
2017-07-16T02:22:19.756Z,16.54
2017-07-16T02:23:00.638Z,16.46
2017-07-16T02:23:41.525Z,16.53
2017-07-16T02:24:22.414Z,16.57
2017-07-16T02:25:03.307Z,16.56
2017-07-16T02:25:44.201Z,16.54
2017-07-16T02:26:25.084Z,16.5
2017-07-16T02:27:05.975Z,16.56
2017-07-16T02:27:46.862Z,16.54
2017-07-16T02:28:27.755Z,16.56
2017-07-16T02:29:08.646Z,16.64
2017-07-16T02:29:49.526Z,16.57
2017-07-16T02:30:30.415Z,16.6
2017-07-16T02:31:11.307Z,16.57
2017-07-16T02:31:52.192Z,16.6
2017-07-16T02:32:33.079Z,16.61
2017-07-16T02:33:13.959Z,16.54
2017-07-16T02:33:54.849Z,16.53
2017-07-16T02:34:35.778Z,16.54
2017-07-16T02:35:16.667Z,16.43
2017-07-16T02:35:57.552Z,16.49
2017-07-16T02:36:38.439Z,16.42
2017-07-16T02:37:19.327Z,16.39
2017-07-16T02:38:00.227Z,16.56
2017-07-16T02:38:41.106Z,16.51
2017-07-16T02:39:21.995Z,16.47
2017-07-16T02:40:02.876Z,16.58
2017-07-16T02:40:43.759Z,16.47
2017-07-16T02:41:24.643Z,16.49
2017-07-16T02:42:05.524Z,16.42
2017-07-16T02:42:46.427Z,16.42
2017-07-16T02:43:27.312Z,16.43
2017-07-16T02:44:08.200Z,16.43
2017-07-16T02:44:49.085Z,16.5
2017-07-16T02:45:29.970Z,16.43
2017-07-16T02:46:10.853Z,16.47
2017-07-16T02:46:51.736Z,16.43
2017-07-16T02:47:32.624Z,16.38
2017-07-16T02:48:13.536Z,16.5
2017-07-16T02:48:54.403Z,16.5
2017-07-16T02:49:35.287Z,16.46
2017-07-16T02:50:16.170Z,16.39
2017-07-16T02:50:57.062Z,16.43
2017-07-16T02:51:37.949Z,16.49
2017-07-16T02:52:18.826Z,16.46
2017-07-16T02:52:59.711Z,16.51
2017-07-16T02:53:40.597Z,16.43
2017-07-16T02:54:21.493Z,16.47
2017-07-16T02:55:02.370Z,16.39
2017-07-16T02:55:43.264Z,16.36
2017-07-16T02:56:24.151Z,16.41
2017-07-16T02:57:05.040Z,16.36
2017-07-16T02:57:45.920Z,16.47
2017-07-16T02:58:26.828Z,16.46
2017-07-16T02:59:07.712Z,16.46
2017-07-16T02:59:48.598Z,16.42
2017-07-16T03:00:29.484Z,16.47
2017-07-16T03:01:10.378Z,16.39
2017-07-16T03:01:51.262Z,16.49
2017-07-16T03:02:32.154Z,16.42
2017-07-16T03:03:13.040Z,16.41
2017-07-16T03:03:53.928Z,16.35
2017-07-16T03:04:34.813Z,16.38
2017-07-16T03:05:15.707Z,16.35
2017-07-16T03:05:56.594Z,16.32
2017-07-16T03:06:37.474Z,16.36
2017-07-16T03:07:18.370Z,16.39
2017-07-16T03:07:59.257Z,16.36
2017-07-16T03:08:40.141Z,16.46
2017-07-16T03:09:21.024Z,16.36
2017-07-16T03:10:01.915Z,16.29
2017-07-16T03:10:42.809Z,16.39
2017-07-16T03:11:23.682Z,16.47
2017-07-16T03:12:04.575Z,16.39
2017-07-16T03:12:45.488Z,16.38
2017-07-16T03:13:26.366Z,16.5
2017-07-16T03:14:07.245Z,16.39
2017-07-16T03:14:48.161Z,16.35
2017-07-16T03:15:29.044Z,16.41
2017-07-16T03:16:09.924Z,16.42
2017-07-16T03:16:50.811Z,16.41
2017-07-16T03:17:31.697Z,16.41
2017-07-16T03:18:12.580Z,16.33
2017-07-16T03:18:53.477Z,16.31
2017-07-16T03:19:34.368Z,16.35
2017-07-16T03:20:15.245Z,16.39
2017-07-16T03:20:56.131Z,16.36
2017-07-16T03:21:37.021Z,16.38
2017-07-16T03:22:17.900Z,16.38
2017-07-16T03:22:58.780Z,16.41
2017-07-16T03:23:39.665Z,16.36
2017-07-16T03:24:20.558Z,16.41
2017-07-16T03:25:01.450Z,16.36
2017-07-16T03:25:42.329Z,16.38
2017-07-16T03:26:23.223Z,16.47
2017-07-16T03:27:04.109Z,16.41
2017-07-16T03:27:44.993Z,16.47
2017-07-16T03:28:25.882Z,16.35
2017-07-16T03:29:06.770Z,16.38
2017-07-16T03:29:47.664Z,16.39
2017-07-16T03:30:28.537Z,16.29
2017-07-16T03:31:09.434Z,16.29
2017-07-16T03:31:50.321Z,16.39
2017-07-16T03:32:31.204Z,16.32
2017-07-16T03:33:12.083Z,16.39
2017-07-16T03:33:52.979Z,16.36
2017-07-16T03:34:33.867Z,16.39
2017-07-16T03:35:14.743Z,16.35
2017-07-16T03:35:55.673Z,16.39
2017-07-16T03:36:36.553Z,16.35
2017-07-16T03:37:17.446Z,16.35
2017-07-16T03:37:58.330Z,16.32
2017-07-16T03:38:39.213Z,16.36
2017-07-16T03:39:20.087Z,16.43
2017-07-16T03:40:00.973Z,16.43
2017-07-16T03:40:41.869Z,16.41
2017-07-16T03:41:22.755Z,16.43
2017-07-16T03:42:03.640Z,16.38
2017-07-16T03:42:44.525Z,16.35
2017-07-16T03:43:25.401Z,16.41
2017-07-16T03:44:06.291Z,16.32
2017-07-16T03:44:47.173Z,16.35
2017-07-16T03:45:28.062Z,16.29
2017-07-16T03:46:08.950Z,16.35
2017-07-16T03:46:49.821Z,16.32
2017-07-16T03:47:30.715Z,16.36
2017-07-16T03:48:11.605Z,16.39
2017-07-16T03:48:52.491Z,16.39
2017-07-16T03:49:33.373Z,16.41
2017-07-16T03:50:14.268Z,16.35
2017-07-16T03:50:55.151Z,16.35
2017-07-16T03:51:36.045Z,16.35
2017-07-16T03:52:16.940Z,16.46
2017-07-16T03:52:57.831Z,16.46
2017-07-16T03:53:38.709Z,16.46
2017-07-16T03:54:19.591Z,16.39
2017-07-16T03:55:00.478Z,16.39
2017-07-16T03:55:41.366Z,16.46
2017-07-16T03:56:22.244Z,16.46
2017-07-16T03:57:03.127Z,16.41
2017-07-16T03:57:44.017Z,16.47
2017-07-16T03:58:24.910Z,16.35
2017-07-16T03:59:05.796Z,16.49
2017-07-16T03:59:46.689Z,16.5
2017-07-16T04:00:27.573Z,16.38
2017-07-16T04:01:08.462Z,16.35
2017-07-16T04:01:49.338Z,16.35
2017-07-16T04:02:30.224Z,16.36
2017-07-16T04:03:11.107Z,16.31
2017-07-16T04:03:51.989Z,16.35
2017-07-16T04:04:32.875Z,16.36
2017-07-16T04:05:13.762Z,16.42
2017-07-16T04:06:52.194Z,16.36
2017-07-16T04:07:33.080Z,16.31
2017-07-16T04:08:13.977Z,16.39
2017-07-16T04:08:54.871Z,16.31
2017-07-16T04:09:35.768Z,16.41
2017-07-16T04:10:16.655Z,16.42
2017-07-16T04:10:57.543Z,16.38
2017-07-16T04:11:38.431Z,16.39
2017-07-16T04:12:19.323Z,16.43
2017-07-16T04:13:00.212Z,16.43
2017-07-16T04:13:41.100Z,16.47
2017-07-16T04:14:21.982Z,16.53
2017-07-16T04:15:02.870Z,16.56
2017-07-16T04:15:43.753Z,16.41
2017-07-16T04:17:18.030Z,16.47
2017-07-16T04:17:58.923Z,16.53
2017-07-16T04:18:39.825Z,16.53
2017-07-16T04:19:20.717Z,16.54
2017-07-16T04:20:01.608Z,16.64
2017-07-16T04:20:42.492Z,16.6
2017-07-16T04:21:23.389Z,16.58
2017-07-16T04:22:04.287Z,16.65
2017-07-16T04:22:45.148Z,16.57
2017-07-16T04:23:26.037Z,16.61
2017-07-16T04:24:06.943Z,16.66
2017-07-16T04:24:47.825Z,16.66
2017-07-16T04:25:28.704Z,16.68
2017-07-16T04:26:09.605Z,16.66
2017-07-16T04:26:50.476Z,16.65
2017-07-16T04:27:31.352Z,16.65
2017-07-16T04:28:12.235Z,16.64
2017-07-16T04:28:53.129Z,16.64
2017-07-16T04:29:34.018Z,16.72
2017-07-16T04:30:14.893Z,16.71
2017-07-16T04:30:55.769Z,16.81
2017-07-16T04:31:36.665Z,16.81
2017-07-16T04:32:17.552Z,16.65
2017-07-16T04:32:58.428Z,16.68
2017-07-16T04:33:39.311Z,16.76
2017-07-16T04:34:20.210Z,16.79
2017-07-16T04:35:01.100Z,16.81
2017-07-16T04:35:41.980Z,16.87
2017-07-16T04:36:22.901Z,16.89
2017-07-16T04:37:03.742Z,16.89
2017-07-16T04:37:44.633Z,16.86
2017-07-16T04:38:25.533Z,16.87
2017-07-16T04:39:06.431Z,16.91
2017-07-16T04:39:47.339Z,16.91
2017-07-16T04:40:28.197Z,17.02
2017-07-16T04:41:09.076Z,16.94
2017-07-16T04:41:49.982Z,17.01
2017-07-16T04:42:30.863Z,17.04
2017-07-16T04:43:11.769Z,17.04
2017-07-16T04:43:52.664Z,17.06
2017-07-16T04:44:33.542Z,17.06
2017-07-16T04:45:14.433Z,17.05
2017-07-16T04:45:55.318Z,17.08
2017-07-16T04:46:36.196Z,17.11
2017-07-16T04:47:17.125Z,17.14
2017-07-16T04:47:58.047Z,17.14
2017-07-16T04:48:38.922Z,17.27
2017-07-16T04:49:19.817Z,17.24
2017-07-16T04:50:00.691Z,17.19
2017-07-16T04:50:41.580Z,17.22
2017-07-16T04:51:22.491Z,17.24
2017-07-16T04:52:03.374Z,17.29
2017-07-16T04:52:44.255Z,17.2
2017-07-16T04:53:25.159Z,17.3
2017-07-16T04:54:06.040Z,17.23
2017-07-16T04:54:46.930Z,17.36
2017-07-16T04:55:27.814Z,17.34
2017-07-16T04:56:08.696Z,17.34
2017-07-16T04:56:49.581Z,17.29
2017-07-16T04:57:30.466Z,17.31
2017-07-16T04:58:11.358Z,17.39
2017-07-16T04:58:52.255Z,17.33
2017-07-16T04:59:33.137Z,17.22
2017-07-16T05:00:14.020Z,17.36
2017-07-16T05:00:54.903Z,17.39
2017-07-16T05:01:35.783Z,17.45
2017-07-16T05:02:16.665Z,17.49
2017-07-16T05:02:57.552Z,17.48
2017-07-16T05:03:38.442Z,17.64
2017-07-16T05:04:19.325Z,17.49
2017-07-16T05:05:00.200Z,17.42
2017-07-16T05:05:41.088Z,17.56
2017-07-16T05:06:21.986Z,17.6
2017-07-16T05:07:02.882Z,17.6
2017-07-16T05:07:43.766Z,17.67
2017-07-16T05:08:24.660Z,17.65
2017-07-16T05:09:05.543Z,17.59
2017-07-16T05:09:46.433Z,17.7
2017-07-16T05:10:27.321Z,17.63
2017-07-16T05:11:08.208Z,17.6
2017-07-16T05:11:49.095Z,17.72
2017-07-16T05:12:29.978Z,17.68
2017-07-16T05:13:10.872Z,17.78
2017-07-16T05:13:51.755Z,17.79
2017-07-16T05:14:32.645Z,17.72
2017-07-16T05:15:13.538Z,17.8
2017-07-16T05:15:54.431Z,17.8
2017-07-16T05:16:35.326Z,17.87
2017-07-16T05:17:16.213Z,17.86
2017-07-16T05:17:57.116Z,17.82
2017-07-16T05:18:38.007Z,17.82
2017-07-16T05:19:18.929Z,17.79
2017-07-16T05:19:59.789Z,17.74
2017-07-16T05:20:40.678Z,17.74
2017-07-16T05:21:21.573Z,17.85
2017-07-16T05:22:02.472Z,17.94
2017-07-16T05:22:43.361Z,18
2017-07-16T05:23:24.260Z,17.86
2017-07-16T05:24:05.157Z,17.95
2017-07-16T05:24:46.042Z,18
2017-07-16T05:25:26.930Z,18.03
2017-07-16T05:26:07.837Z,18.04
2017-07-16T05:26:48.726Z,18.05
2017-07-16T05:27:29.617Z,18.15
2017-07-16T05:28:10.519Z,18.26
2017-07-16T05:28:51.409Z,18.28
2017-07-16T05:29:32.297Z,18.18
2017-07-16T05:30:13.189Z,18.22
2017-07-16T05:30:54.075Z,18.08
2017-07-16T05:31:34.971Z,18.13
2017-07-16T05:32:15.853Z,18.05
2017-07-16T05:32:56.743Z,18.08
2017-07-16T05:33:37.635Z,18.23
2017-07-16T05:34:18.523Z,18.2
2017-07-16T05:34:59.417Z,18.29
2017-07-16T05:35:40.307Z,18.28
2017-07-16T05:36:21.208Z,18.34
2017-07-16T05:37:02.100Z,18.34
2017-07-16T05:37:42.985Z,18.33
2017-07-16T05:38:23.878Z,18.44
2017-07-16T05:39:04.800Z,18.38
2017-07-16T05:39:45.681Z,18.33
2017-07-16T05:40:26.565Z,18.25
2017-07-16T05:41:07.456Z,18.18
2017-07-16T05:41:48.343Z,18.23
2017-07-16T05:42:29.217Z,18.22
2017-07-16T05:43:10.108Z,18.28
2017-07-16T05:43:51.007Z,18.22
2017-07-16T05:44:31.894Z,18.05
2017-07-16T05:45:12.787Z,18.13
2017-07-16T05:45:53.684Z,18.04
2017-07-16T05:46:34.570Z,18.11
2017-07-16T05:47:15.462Z,18.15
2017-07-16T05:47:56.342Z,18.2
2017-07-16T05:48:37.229Z,18.26
2017-07-16T05:49:18.126Z,18.4
2017-07-16T05:49:59.021Z,18.47
2017-07-16T05:50:39.923Z,18.34
2017-07-16T05:51:20.824Z,18.23
2017-07-16T05:52:01.724Z,18.38
2017-07-16T05:52:42.611Z,18.59
2017-07-16T05:53:23.497Z,18.59
2017-07-16T05:54:04.386Z,18.66
2017-07-16T05:54:45.913Z,18.84
2017-07-16T05:56:03.902Z,18.83
2017-07-16T05:57:21.956Z,18.88
2017-07-16T05:58:50.377Z,18.93
2017-07-16T06:00:24.136Z,19.02
2017-07-16T06:01:52.643Z,18.68
2017-07-16T06:03:11.728Z,18.68
2017-07-16T06:04:40.193Z,18.73
2017-07-16T06:06:08.681Z,18.89
2017-07-16T06:07:37.240Z,19.09
2017-07-16T06:08:55.294Z,19.07
2017-07-16T06:10:24.901Z,19.18
2017-07-16T06:11:58.750Z,19.31
2017-07-16T06:13:26.997Z,19.37
2017-07-16T06:14:07.900Z,19.67
2017-07-16T06:14:48.797Z,19.95
2017-07-16T06:15:29.695Z,20.21
2017-07-16T06:16:10.595Z,20.39
2017-07-16T06:16:51.493Z,20.67
2017-07-16T06:17:32.397Z,20.96
2017-07-16T06:18:13.306Z,20.97
2017-07-16T06:18:54.175Z,20.8
2017-07-16T06:19:35.072Z,21.4
2017-07-16T06:20:15.960Z,21.95
2017-07-16T06:20:56.851Z,22.25
2017-07-16T06:21:37.752Z,22.45
2017-07-16T06:22:18.646Z,22.76
2017-07-16T06:22:59.544Z,22.94
2017-07-16T06:23:40.462Z,23.03
2017-07-16T06:24:21.356Z,23.43
2017-07-16T06:25:02.247Z,23.41
2017-07-16T06:25:43.145Z,23.41
2017-07-16T06:26:24.034Z,23
2017-07-16T06:27:04.931Z,22.85
2017-07-16T06:27:45.823Z,22.41
2017-07-16T06:28:26.721Z,22.94
2017-07-16T06:29:07.615Z,23.25
2017-07-16T06:29:48.513Z,23.46
2017-07-16T06:30:29.410Z,23.5
2017-07-16T06:31:10.293Z,23.47
2017-07-16T06:31:51.202Z,23.28
2017-07-16T06:32:32.095Z,23.55
2017-07-16T06:33:12.998Z,23.44
2017-07-16T06:33:53.896Z,23.41
2017-07-16T06:34:34.798Z,23.65
2017-07-16T06:35:15.696Z,23.69
2017-07-16T06:35:56.597Z,23.76
2017-07-16T06:36:37.502Z,23.69
2017-07-16T06:37:18.426Z,23.63
2017-07-16T06:37:59.326Z,23.56
2017-07-16T06:38:40.233Z,23.5
2017-07-16T06:39:21.127Z,23.56
2017-07-16T06:40:02.027Z,23.55
2017-07-16T06:40:42.930Z,23.55
2017-07-16T06:41:23.824Z,23.58
2017-07-16T06:42:04.716Z,23.4
2017-07-16T06:42:45.613Z,23.51
2017-07-16T06:43:26.521Z,23.73
2017-07-16T06:44:07.410Z,23.83
2017-07-16T06:44:48.317Z,24.02
2017-07-16T06:45:29.217Z,24.28
2017-07-16T06:46:10.115Z,24.02
2017-07-16T06:46:51.014Z,23.66
2017-07-16T06:47:31.931Z,22.99
2017-07-16T06:48:12.829Z,22.85
2017-07-16T06:48:53.721Z,23.34
2017-07-16T06:49:34.616Z,23.62
2017-07-16T06:50:15.527Z,22.78
2017-07-16T06:50:56.427Z,22.98
2017-07-16T06:51:37.326Z,23.43
2017-07-16T06:52:18.228Z,23.36
2017-07-16T06:52:59.157Z,23.44
2017-07-16T06:53:40.026Z,23.78
2017-07-16T06:54:20.922Z,23.86
2017-07-16T06:55:01.830Z,23.41
2017-07-16T06:55:42.734Z,23.02
2017-07-16T06:56:23.642Z,23.32
2017-07-16T06:57:04.537Z,23.41
2017-07-16T06:57:45.434Z,23.47
2017-07-16T06:58:26.323Z,23.55
2017-07-16T06:59:07.226Z,23.63
2017-07-16T06:59:48.127Z,23.78
2017-07-16T07:00:29.043Z,23.83
2017-07-16T07:01:09.951Z,23.91
2017-07-16T07:01:50.876Z,23.32
2017-07-16T07:02:31.746Z,23.21
2017-07-16T07:03:12.655Z,23.5
2017-07-16T07:03:53.544Z,23.71
2017-07-16T07:04:34.449Z,23.81
2017-07-16T07:05:15.331Z,23.76
2017-07-16T07:05:56.246Z,23.96
2017-07-16T07:06:37.152Z,23.46
2017-07-16T07:07:18.060Z,23.17
2017-07-16T07:07:58.955Z,23.55
2017-07-16T07:08:39.850Z,23.37
2017-07-16T07:09:20.752Z,23.06
2017-07-16T07:10:01.639Z,22.87
2017-07-16T07:10:42.536Z,22.69
2017-07-16T07:11:23.435Z,23.13
2017-07-16T07:12:04.345Z,23.41
2017-07-16T07:12:45.238Z,23.59
2017-07-16T07:13:26.137Z,23.8
2017-07-16T07:14:07.029Z,23.98
2017-07-16T07:14:47.930Z,23.84
2017-07-16T07:15:28.836Z,23.98
2017-07-16T07:16:09.747Z,24.16
2017-07-16T07:16:50.653Z,24.26
2017-07-16T07:17:31.556Z,24.23
2017-07-16T07:18:12.480Z,23.84
2017-07-16T07:18:53.383Z,24.14
2017-07-16T07:19:34.289Z,23.66
2017-07-16T07:20:15.196Z,23.81
2017-07-16T07:20:56.101Z,23.96
2017-07-16T07:21:36.995Z,24.18
2017-07-16T07:22:17.895Z,24.33
2017-07-16T07:22:58.799Z,24.5
2017-07-16T07:23:39.696Z,24.55
2017-07-16T07:24:20.602Z,24.63
2017-07-16T07:25:01.501Z,24.86
2017-07-16T07:25:42.401Z,25.13
2017-07-16T07:26:23.305Z,25.01
2017-07-16T07:27:04.206Z,25.26
2017-07-16T07:27:45.100Z,25.36
2017-07-16T07:28:26.006Z,25.25
2017-07-16T07:29:06.914Z,24.57
2017-07-16T07:29:47.797Z,24.93
2017-07-16T07:30:28.735Z,24.92
2017-07-16T07:31:09.642Z,25.25
2017-07-16T07:31:50.533Z,25.38
2017-07-16T07:32:31.434Z,25.5
2017-07-16T07:33:12.339Z,25.54
2017-07-16T07:33:53.238Z,25.62
2017-07-16T07:34:34.139Z,25.65
2017-07-16T07:35:15.042Z,24.63
2017-07-16T07:35:55.931Z,24.24
2017-07-16T07:36:36.821Z,24.76
2017-07-16T07:37:17.720Z,24.98
2017-07-16T07:37:58.623Z,25.1
2017-07-16T07:38:39.522Z,24.86
2017-07-16T07:39:20.423Z,24.77
2017-07-16T07:40:01.326Z,24.57
2017-07-16T07:40:42.255Z,24.57
2017-07-16T07:41:23.171Z,24.28
2017-07-16T07:42:04.077Z,24.5
2017-07-16T07:42:44.967Z,24.36
2017-07-16T07:43:25.875Z,24.81
2017-07-16T07:44:06.768Z,25.03
2017-07-16T07:44:47.668Z,25.28
2017-07-16T07:45:28.578Z,25.23
2017-07-16T07:46:09.482Z,25.53
2017-07-16T07:46:50.385Z,25.6
2017-07-16T07:47:31.285Z,25.5
2017-07-16T07:48:12.187Z,25.63
2017-07-16T07:50:05.867Z,25.22
2017-07-16T07:50:46.761Z,24.43
2017-07-16T07:51:27.669Z,24.26
2017-07-16T07:52:08.567Z,23.76
2017-07-16T07:52:49.461Z,24.51
2017-07-16T07:53:30.374Z,24.95
2017-07-16T07:54:11.273Z,25.38
2017-07-16T07:54:52.167Z,25.6
2017-07-16T07:55:33.068Z,25.62
2017-07-16T07:56:13.964Z,25.78
2017-07-16T07:56:54.866Z,25.44
2017-07-16T07:57:35.772Z,25.73
2017-07-16T07:58:16.679Z,25.43
2017-07-16T07:58:57.579Z,24.98
2017-07-16T07:59:38.480Z,24.58
2017-07-16T08:00:19.393Z,24.98
2017-07-16T08:01:00.295Z,25.36
2017-07-16T08:01:41.199Z,25.44
2017-07-16T08:02:22.101Z,25.72
2017-07-16T08:03:02.995Z,25.81
2017-07-16T08:03:43.901Z,26
2017-07-16T08:04:24.788Z,26.23
2017-07-16T08:05:05.680Z,26.09
2017-07-16T08:05:46.590Z,26.15
2017-07-16T08:06:27.493Z,25.22
2017-07-16T08:07:08.401Z,25.11
2017-07-16T08:07:49.309Z,24.8
2017-07-16T08:08:30.246Z,25.33
2017-07-16T08:09:11.155Z,25.53
2017-07-16T08:09:52.062Z,25.95
2017-07-16T08:10:32.971Z,26.19
2017-07-16T08:11:13.858Z,26.15
2017-07-16T08:11:54.774Z,25.99
2017-07-16T08:12:35.680Z,25.99
2017-07-16T08:13:16.583Z,26.19
2017-07-16T08:13:57.490Z,25.91
2017-07-16T08:14:38.397Z,25.91
2017-07-16T08:15:19.303Z,25.58
2017-07-16T08:16:00.204Z,25.53
2017-07-16T08:16:41.110Z,25.62
2017-07-16T08:17:22.035Z,25.65
2017-07-16T08:18:02.935Z,24.74
2017-07-16T08:18:43.852Z,24.6
2017-07-16T08:19:24.756Z,23.99
2017-07-16T08:20:05.658Z,24.05
2017-07-16T08:20:46.565Z,23.83
2017-07-16T08:21:27.464Z,23.76
2017-07-16T08:22:08.365Z,23.68
2017-07-16T08:22:49.271Z,24.4
2017-07-16T08:23:30.180Z,25.04
2017-07-16T08:24:11.086Z,25.72
2017-07-16T08:24:51.985Z,25.81
2017-07-16T08:25:32.891Z,26.18
2017-07-16T08:26:13.791Z,25.72
2017-07-16T08:26:54.691Z,25.26
2017-07-16T08:27:35.603Z,24.5
2017-07-16T08:28:16.512Z,24.3
2017-07-16T08:28:57.420Z,23.95
2017-07-16T08:29:38.321Z,24.02
2017-07-16T08:30:19.233Z,24.47
2017-07-16T08:31:00.141Z,25.38
2017-07-16T08:31:41.042Z,25.77
2017-07-16T08:32:21.948Z,26.45
2017-07-16T08:33:02.866Z,26.1
2017-07-16T08:33:43.765Z,26.47
2017-07-16T08:34:24.675Z,27.17
2017-07-16T08:35:05.588Z,27.22
2017-07-16T08:35:46.496Z,27.22
2017-07-16T08:36:27.402Z,27.35
2017-07-16T08:37:08.332Z,27.44
2017-07-16T08:37:49.245Z,27.59
2017-07-16T08:38:30.193Z,27.83
2017-07-16T08:39:11.050Z,28.07
2017-07-16T08:39:51.957Z,27.03
2017-07-16T08:40:32.856Z,26.03
2017-07-16T08:41:13.763Z,25.06
2017-07-16T08:41:54.661Z,24.58
2017-07-16T08:42:35.568Z,24.53
2017-07-16T08:43:16.474Z,24.7
2017-07-16T08:43:57.381Z,25.7
2017-07-16T08:44:38.289Z,26.28
2017-07-16T08:45:19.207Z,25.95
2017-07-16T08:46:00.107Z,26.62
2017-07-16T08:46:41.017Z,27.1
2017-07-16T08:47:21.927Z,27.18
2017-07-16T08:48:02.824Z,27.33
2017-07-16T08:48:43.733Z,27.55
2017-07-16T08:49:24.635Z,27.65
2017-07-16T08:50:05.538Z,27.64
2017-07-16T08:50:46.440Z,27.86
2017-07-16T08:51:27.347Z,27.7
2017-07-16T08:52:08.253Z,27.71
2017-07-16T08:52:49.165Z,27.77
2017-07-16T08:53:30.076Z,27.71
2017-07-16T08:54:11.041Z,27.82
2017-07-16T08:54:51.902Z,27.68
2017-07-16T08:55:32.831Z,27.63
2017-07-16T08:56:13.737Z,27.71
2017-07-16T08:56:54.640Z,27.8
2017-07-16T08:57:35.542Z,28
2017-07-16T08:58:16.433Z,27.2
2017-07-16T08:58:57.342Z,26.96
2017-07-16T08:59:38.251Z,26.68
2017-07-16T09:00:19.148Z,25.83
2017-07-16T09:01:00.060Z,25.51
2017-07-16T09:01:40.955Z,25.98